Terminal Aerodrome Forecast
Issued by NWS

Home | Current Version | Previous Version | Graphics & Text | Print | Product List | Glossary On
Versions: 1 2 3 4 5 6 7 8 9 10 11 12 13 14 15 16 17 18 19 20 21 22 23 24
000
FTUS43 KBIS 290500
TAFDIK
TAF
KDIK 290536Z 2906/3006 05013KT P6SM BKN007 OVC011
      TEMPO 2906/2909 2SM BR SCT002 OVC005
     FM290900 08010KT 1SM BR OVC003
     FM291500 11012KT 4SM BR BKN005 OVC012
     FM291900 12018G24KT P6SM -SHRA SCT006 BKN012
     FM300100 13012KT P6SM -SHRA BKN005 OVC010=

USA.gov is the U.S. government's official web portal to all federal, state and local government web resources and services.